sensor_id;sensor_type;location;lat;lon;timestamp;P1;durP1;ratioP1;P2;durP2;ratioP2
12840;SDS011;6487;48.626;12.486;2023-09-18T00:01:26;6.23;;;5.73;;
12840;SDS011;6487;48.626;12.486;2023-09-18T00:03:58;7.53;;;5.50;;
12840;SDS011;6487;48.626;12.486;2023-09-18T00:06:26;5.83;;;5.33;;
12840;SDS011;6487;48.626;12.486;2023-09-18T00:08:56;6.10;;;5.50;;
12840;SDS011;6487;48.626;12.486;2023-09-18T00:11:26;5.67;;;5.17;;
12840;SDS011;6487;48.626;12.486;2023-09-18T00:13:55;5.57;;;5.17;;
12840;SDS011;6487;48.626;12.486;2023-09-18T00:16:23;6.23;;;5.57;;
12840;SDS011;6487;48.626;12.486;2023-09-18T00:18:53;6.23;;;5.40;;
12840;SDS011;6487;48.626;12.486;2023-09-18T00:21:24;7.17;;;5.63;;
12840;SDS011;6487;48.626;12.486;2023-09-18T00:23:53;6.40;;;5.80;;
12840;SDS011;6487;48.626;12.486;2023-09-18T00:26:21;5.80;;;5.17;;
12840;SDS011;6487;48.626;12.486;2023-09-18T00:28:51;5.60;;;5.17;;
12840;SDS011;6487;48.626;12.486;2023-09-18T00:31:19;6.57;;;5.97;;
12840;SDS011;6487;48.626;12.486;2023-09-18T00:33:48;7.30;;;5.80;;
12840;SDS011;6487;48.626;12.486;2023-09-18T00:36:19;6.30;;;5.80;;
12840;SDS011;6487;48.626;12.486;2023-09-18T00:38:47;7.57;;;5.97;;
12840;SDS011;6487;48.626;12.486;2023-09-18T00:41:19;7.20;;;6.50;;
12840;SDS011;6487;48.626;12.486;2023-09-18T00:43:48;6.33;;;5.83;;
12840;SDS011;6487;48.626;12.486;2023-09-18T00:46:17;6.20;;;5.73;;
12840;SDS011;6487;48.626;12.486;2023-09-18T00:48:46;6.83;;;6.23;;
12840;SDS011;6487;48.626;12.486;2023-09-18T00:51:15;6.87;;;6.37;;
12840;SDS011;6487;48.626;12.486;2023-09-18T00:53:44;6.83;;;6.17;;
12840;SDS011;6487;48.626;12.486;2023-09-18T00:56:14;7.17;;;6.47;;
12840;SDS011;6487;48.626;12.486;2023-09-18T00:58:44;6.40;;;5.90;;
12840;SDS011;6487;48.626;12.486;2023-09-18T01:01:14;5.70;;;5.30;;
12840;SDS011;6487;48.626;12.486;2023-09-18T01:03:49;5.77;;;5.27;;
12840;SDS011;6487;48.626;12.486;2023-09-18T01:06:19;6.77;;;6.10;;
12840;SDS011;6487;48.626;12.486;2023-09-18T01:08:48;6.43;;;5.83;;
12840;SDS011;6487;48.626;12.486;2023-09-18T01:11:22;7.00;;;6.40;;
12840;SDS011;6487;48.626;12.486;2023-09-18T01:14:03;6.33;;;5.83;;
12840;SDS011;6487;48.626;12.486;2023-09-18T01:16:39;7.13;;;6.33;;
12840;SDS011;6487;48.626;12.486;2023-09-18T01:19:16;7.27;;;6.57;;
12840;SDS011;6487;48.626;12.486;2023-09-18T01:22:02;6.77;;;6.10;;
12840;SDS011;6487;48.626;12.486;2023-09-18T01:24:33;6.90;;;6.37;;
12840;SDS011;6487;48.626;12.486;2023-09-18T01:27:02;7.03;;;6.43;;
12840;SDS011;6487;48.626;12.486;2023-09-18T01:29:31;6.77;;;5.97;;
12840;SDS011;6487;48.626;12.486;2023-09-18T01:32:00;7.23;;;6.63;;
12840;SDS011;6487;48.626;12.486;2023-09-18T01:34:29;7.70;;;7.00;;
12840;SDS011;6487;48.626;12.486;2023-09-18T01:37:02;6.97;;;6.37;;
12840;SDS011;6487;48.626;12.486;2023-09-18T01:39:35;7.33;;;6.63;;
12840;SDS011;6487;48.626;12.486;2023-09-18T01:42:07;7.23;;;6.53;;
12840;SDS011;6487;48.626;12.486;2023-09-18T01:44:37;7.07;;;6.53;;
12840;SDS011;6487;48.626;12.486;2023-09-18T01:47:06;7.80;;;6.70;;
12840;SDS011;6487;48.626;12.486;2023-09-18T01:49:39;7.87;;;6.10;;
12840;SDS011;6487;48.626;12.486;2023-09-18T01:52:08;7.63;;;6.93;;
12840;SDS011;6487;48.626;12.486;2023-09-18T01:54:39;7.30;;;6.67;;
12840;SDS011;6487;48.626;12.486;2023-09-18T01:57:07;7.07;;;6.47;;
12840;SDS011;6487;48.626;12.486;2023-09-18T01:59:35;8.63;;;7.10;;
12840;SDS011;6487;48.626;12.486;2023-09-18T02:02:11;7.17;;;6.60;;
12840;SDS011;6487;48.626;12.486;2023-09-18T02:04:47;7.27;;;6.53;;
12840;SDS011;6487;48.626;12.486;2023-09-18T02:07:32;7.60;;;6.60;;
12840;SDS011;6487;48.626;12.486;2023-09-18T02:10:05;7.60;;;6.87;;
12840;SDS011;6487;48.626;12.486;2023-09-18T02:12:34;7.23;;;6.53;;
12840;SDS011;6487;48.626;12.486;2023-09-18T02:15:03;7.23;;;6.60;;
12840;SDS011;6487;48.626;12.486;2023-09-18T02:17:33;9.20;;;6.67;;
12840;SDS011;6487;48.626;12.486;2023-09-18T02:20:02;7.50;;;6.80;;
12840;SDS011;6487;48.626;12.486;2023-09-18T02:22:38;7.33;;;6.63;;
12840;SDS011;6487;48.626;12.486;2023-09-18T02:25:09;7.30;;;6.70;;
12840;SDS011;6487;48.626;12.486;2023-09-18T02:27:37;7.07;;;6.47;;
12840;SDS011;6487;48.626;12.486;2023-09-18T02:30:06;7.93;;;7.13;;
12840;SDS011;6487;48.626;12.486;2023-09-18T02:32:36;6.40;;;5.77;;
12840;SDS011;6487;48.626;12.486;2023-09-18T02:35:05;7.20;;;6.53;;
12840;SDS011;6487;48.626;12.486;2023-09-18T02:37:34;7.17;;;6.57;;
12840;SDS011;6487;48.626;12.486;2023-09-18T02:40:03;7.83;;;7.23;;
12840;SDS011;6487;48.626;12.486;2023-09-18T02:42:35;6.43;;;5.90;;
12840;SDS011;6487;48.626;12.486;2023-09-18T02:45:04;6.80;;;5.50;;
12840;SDS011;6487;48.626;12.486;2023-09-18T02:47:34;6.80;;;6.27;;
12840;SDS011;6487;48.626;12.486;2023-09-18T02:50:08;6.23;;;5.73;;
12840;SDS011;6487;48.626;12.486;2023-09-18T02:52:38;6.67;;;6.07;;
12840;SDS011;6487;48.626;12.486;2023-09-18T02:55:06;6.73;;;6.10;;
12840;SDS011;6487;48.626;12.486;2023-09-18T02:57:37;7.23;;;6.03;;
12840;SDS011;6487;48.626;12.486;2023-09-18T03:00:06;6.33;;;5.83;;
12840;SDS011;6487;48.626;12.486;2023-09-18T03:02:35;6.47;;;5.83;;
12840;SDS011;6487;48.626;12.486;2023-09-18T03:05:04;6.67;;;6.07;;
12840;SDS011;6487;48.626;12.486;2023-09-18T03:07:35;6.47;;;5.80;;
12840;SDS011;6487;48.626;12.486;2023-09-18T03:10:06;6.37;;;5.87;;
12840;SDS011;6487;48.626;12.486;2023-09-18T03:12:41;6.63;;;5.60;;
12840;SDS011;6487;48.626;12.486;2023-09-18T03:15:09;6.20;;;5.60;;
12840;SDS011;6487;48.626;12.486;2023-09-18T03:17:38;6.97;;;6.33;;
12840;SDS011;6487;48.626;12.486;2023-09-18T03:20:08;7.43;;;6.77;;
12840;SDS011;6487;48.626;12.486;2023-09-18T03:22:38;7.27;;;6.57;;
12840;SDS011;6487;48.626;12.486;2023-09-18T03:25:06;6.17;;;5.57;;
12840;SDS011;6487;48.626;12.486;2023-09-18T03:27:36;6.20;;;5.60;;
12840;SDS011;6487;48.626;12.486;2023-09-18T03:30:07;5.67;;;5.17;;
12840;SDS011;6487;48.626;12.486;2023-09-18T03:32:39;5.93;;;5.43;;
12840;SDS011;6487;48.626;12.486;2023-09-18T03:35:07;6.10;;;5.60;;
12840;SDS011;6487;48.626;12.486;2023-09-18T03:37:43;6.27;;;5.73;;
12840;SDS011;6487;48.626;12.486;2023-09-18T03:40:12;6.13;;;5.50;;
12840;SDS011;6487;48.626;12.486;2023-09-18T03:42:41;7.33;;;5.87;;
12840;SDS011;6487;48.626;12.486;2023-09-18T03:45:13;6.93;;;5.70;;
12840;SDS011;6487;48.626;12.486;2023-09-18T03:47:44;6.97;;;6.37;;
12840;SDS011;6487;48.626;12.486;2023-09-18T03:50:12;7.17;;;5.97;;
12840;SDS011;6487;48.626;12.486;2023-09-18T03:52:41;7.10;;;6.47;;
12840;SDS011;6487;48.626;12.486;2023-09-18T03:55:09;8.10;;;5.97;;
12840;SDS011;6487;48.626;12.486;2023-09-18T03:57:38;7.13;;;6.53;;
12840;SDS011;6487;48.626;12.486;2023-09-18T04:00:10;6.20;;;5.67;;
12840;SDS011;6487;48.626;12.486;2023-09-18T04:02:43;6.73;;;6.13;;
12840;SDS011;6487;48.626;12.486;2023-09-18T04:05:10;6.83;;;5.93;;
12840;SDS011;6487;48.626;12.486;2023-09-18T04:07:39;5.93;;;5.33;;
12840;SDS011;6487;48.626;12.486;2023-09-18T04:10:12;6.47;;;5.90;;
12840;SDS011;6487;48.626;12.486;2023-09-18T04:12:45;7.67;;;6.20;;
12840;SDS011;6487;48.626;12.486;2023-09-18T04:15:16;6.03;;;5.63;;
12840;SDS011;6487;48.626;12.486;2023-09-18T04:17:45;6.60;;;6.07;;
12840;SDS011;6487;48.626;12.486;2023-09-18T04:20:14;6.17;;;5.57;;
12840;SDS011;6487;48.626;12.486;2023-09-18T04:22:44;6.07;;;5.43;;
12840;SDS011;6487;48.626;12.486;2023-09-18T04:25:17;6.10;;;5.60;;
12840;SDS011;6487;48.626;12.486;2023-09-18T04:27:46;6.30;;;5.70;;
12840;SDS011;6487;48.626;12.486;2023-09-18T04:30:18;5.97;;;5.40;;
12840;SDS011;6487;48.626;12.486;2023-09-18T04:32:46;7.37;;;5.50;;
12840;SDS011;6487;48.626;12.486;2023-09-18T04:35:15;8.07;;;6.07;;
12840;SDS011;6487;48.626;12.486;2023-09-18T04:37:44;6.20;;;5.60;;
12840;SDS011;6487;48.626;12.486;2023-09-18T04:40:12;6.87;;;6.17;;
12840;SDS011;6487;48.626;12.486;2023-09-18T04:42:41;6.00;;;5.27;;
12840;SDS011;6487;48.626;12.486;2023-09-18T04:45:09;6.23;;;5.60;;
12840;SDS011;6487;48.626;12.486;2023-09-18T04:47:42;5.50;;;5.10;;
12840;SDS011;6487;48.626;12.486;2023-09-18T04:50:11;6.00;;;5.50;;
12840;SDS011;6487;48.626;12.486;2023-09-18T04:52:41;7.50;;;5.83;;
12840;SDS011;6487;48.626;12.486;2023-09-18T04:55:10;5.50;;;5.10;;
12840;SDS011;6487;48.626;12.486;2023-09-18T04:57:38;6.00;;;5.50;;
12840;SDS011;6487;48.626;12.486;2023-09-18T05:00:08;6.10;;;5.60;;
12840;SDS011;6487;48.626;12.486;2023-09-18T05:02:44;8.47;;;6.87;;
12840;SDS011;6487;48.626;12.486;2023-09-18T05:05:13;6.33;;;5.83;;
12840;SDS011;6487;48.626;12.486;2023-09-18T05:07:42;6.80;;;6.00;;
12840;SDS011;6487;48.626;12.486;2023-09-18T05:10:10;6.83;;;6.23;;
12840;SDS011;6487;48.626;12.486;2023-09-18T05:12:41;7.40;;;5.83;;
12840;SDS011;6487;48.626;12.486;2023-09-18T05:15:09;7.17;;;6.43;;
12840;SDS011;6487;48.626;12.486;2023-09-18T05:17:40;6.20;;;5.70;;
12840;SDS011;6487;48.626;12.486;2023-09-18T05:20:13;6.13;;;5.60;;
12840;SDS011;6487;48.626;12.486;2023-09-18T05:22:44;6.90;;;6.20;;
12840;SDS011;6487;48.626;12.486;2023-09-18T05:25:13;6.20;;;5.70;;
12840;SDS011;6487;48.626;12.486;2023-09-18T05:27:42;6.93;;;6.43;;
12840;SDS011;6487;48.626;12.486;2023-09-18T05:30:12;5.87;;;5.37;;
12840;SDS011;6487;48.626;12.486;2023-09-18T05:32:42;8.87;;;6.47;;
12840;SDS011;6487;48.626;12.486;2023-09-18T05:35:13;6.73;;;6.20;;
12840;SDS011;6487;48.626;12.486;2023-09-18T05:37:43;7.17;;;6.47;;
12840;SDS011;6487;48.626;12.486;2023-09-18T05:40:12;7.10;;;6.50;;
12840;SDS011;6487;48.626;12.486;2023-09-18T05:42:42;6.63;;;6.10;;
12840;SDS011;6487;48.626;12.486;2023-09-18T05:45:12;7.90;;;7.20;;
12840;SDS011;6487;48.626;12.486;2023-09-18T05:47:42;9.00;;;7.57;;
12840;SDS011;6487;48.626;12.486;2023-09-18T05:50:11;8.57;;;7.73;;
12840;SDS011;6487;48.626;12.486;2023-09-18T05:52:43;8.20;;;7.40;;
12840;SDS011;6487;48.626;12.486;2023-09-18T05:55:13;10.70;;;7.50;;
12840;SDS011;6487;48.626;12.486;2023-09-18T05:57:42;8.77;;;7.47;;
12840;SDS011;6487;48.626;12.486;2023-09-18T06:00:11;8.63;;;7.77;;
12840;SDS011;6487;48.626;12.486;2023-09-18T06:02:40;8.33;;;7.27;;
12840;SDS011;6487;48.626;12.486;2023-09-18T06:05:10;8.90;;;7.83;;
12840;SDS011;6487;48.626;12.486;2023-09-18T06:07:40;8.30;;;7.50;;
12840;SDS011;6487;48.626;12.486;2023-09-18T06:10:09;10.63;;;8.47;;
12840;SDS011;6487;48.626;12.486;2023-09-18T06:12:38;11.43;;;9.00;;
12840;SDS011;6487;48.626;12.486;2023-09-18T06:15:06;8.67;;;7.93;;
12840;SDS011;6487;48.626;12.486;2023-09-18T06:17:36;8.67;;;7.87;;
12840;SDS011;6487;48.626;12.486;2023-09-18T06:20:06;10.30;;;7.80;;
12840;SDS011;6487;48.626;12.486;2023-09-18T06:22:37;8.57;;;7.83;;
12840;SDS011;6487;48.626;12.486;2023-09-18T06:25:07;9.67;;;8.47;;
12840;SDS011;6487;48.626;12.486;2023-09-18T06:27:37;9.93;;;8.87;;
12840;SDS011;6487;48.626;12.486;2023-09-18T06:30:06;8.77;;;7.93;;
12840;SDS011;6487;48.626;12.486;2023-09-18T06:32:35;9.20;;;8.17;;
12840;SDS011;6487;48.626;12.486;2023-09-18T06:35:04;9.23;;;8.27;;
12840;SDS011;6487;48.626;12.486;2023-09-18T06:37:33;10.13;;;9.13;;
12840;SDS011;6487;48.626;12.486;2023-09-18T06:40:02;8.30;;;7.47;;
12840;SDS011;6487;48.626;12.486;2023-09-18T06:42:33;9.17;;;8.37;;
12840;SDS011;6487;48.626;12.486;2023-09-18T06:45:02;8.70;;;7.83;;
12840;SDS011;6487;48.626;12.486;2023-09-18T06:47:33;7.27;;;6.67;;
12840;SDS011;6487;48.626;12.486;2023-09-18T06:50:01;8.30;;;7.50;;
12840;SDS011;6487;48.626;12.486;2023-09-18T06:52:32;9.60;;;8.17;;
12840;SDS011;6487;48.626;12.486;2023-09-18T06:55:00;10.27;;;7.77;;
12840;SDS011;6487;48.626;12.486;2023-09-18T06:57:28;9.27;;;7.23;;
12840;SDS011;6487;48.626;12.486;2023-09-18T06:59:58;9.07;;;7.03;;
12840;SDS011;6487;48.626;12.486;2023-09-18T07:02:26;7.23;;;6.53;;
12840;SDS011;6487;48.626;12.486;2023-09-18T07:04:55;8.60;;;6.97;;
12840;SDS011;6487;48.626;12.486;2023-09-18T07:07:24;8.23;;;7.13;;
12840;SDS011;6487;48.626;12.486;2023-09-18T07:09:53;7.10;;;6.40;;
12840;SDS011;6487;48.626;12.486;2023-09-18T07:12:24;7.83;;;7.03;;
12840;SDS011;6487;48.626;12.486;2023-09-18T07:14:53;8.57;;;6.23;;
12840;SDS011;6487;48.626;12.486;2023-09-18T07:17:22;6.57;;;5.93;;
12840;SDS011;6487;48.626;12.486;2023-09-18T07:19:51;6.20;;;5.70;;
12840;SDS011;6487;48.626;12.486;2023-09-18T07:22:21;6.30;;;5.70;;
12840;SDS011;6487;48.626;12.486;2023-09-18T07:24:49;7.57;;;5.43;;
12840;SDS011;6487;48.626;12.486;2023-09-18T07:27:18;6.47;;;5.70;;
12840;SDS011;6487;48.626;12.486;2023-09-18T07:29:46;5.90;;;5.40;;
12840;SDS011;6487;48.626;12.486;2023-09-18T07:32:15;6.50;;;5.47;;
12840;SDS011;6487;48.626;12.486;2023-09-18T07:35:03;6.60;;;6.10;;
12840;SDS011;6487;48.626;12.486;2023-09-18T07:37:33;5.97;;;5.20;;
12840;SDS011;6487;48.626;12.486;2023-09-18T07:40:02;6.70;;;5.00;;
12840;SDS011;6487;48.626;12.486;2023-09-18T07:42:32;5.87;;;5.23;;
12840;SDS011;6487;48.626;12.486;2023-09-18T07:45:01;9.13;;;4.30;;
12840;SDS011;6487;48.626;12.486;2023-09-18T07:47:30;5.30;;;4.90;;
12840;SDS011;6487;48.626;12.486;2023-09-18T07:49:59;5.63;;;4.77;;
12840;SDS011;6487;48.626;12.486;2023-09-18T07:52:29;6.43;;;5.10;;
12840;SDS011;6487;48.626;12.486;2023-09-18T07:54:58;4.93;;;4.53;;
12840;SDS011;6487;48.626;12.486;2023-09-18T07:57:26;6.43;;;4.47;;
12840;SDS011;6487;48.626;12.486;2023-09-18T07:59:57;6.50;;;4.87;;
12840;SDS011;6487;48.626;12.486;2023-09-18T08:02:25;6.07;;;5.47;;
12840;SDS011;6487;48.626;12.486;2023-09-18T08:04:55;6.77;;;6.00;;
12840;SDS011;6487;48.626;12.486;2023-09-18T08:07:23;5.97;;;5.23;;
12840;SDS011;6487;48.626;12.486;2023-09-18T08:09:53;7.53;;;5.47;;
12840;SDS011;6487;48.626;12.486;2023-09-18T08:12:22;5.07;;;4.63;;
12840;SDS011;6487;48.626;12.486;2023-09-18T08:14:51;5.80;;;5.30;;
12840;SDS011;6487;48.626;12.486;2023-09-18T08:17:21;7.73;;;4.77;;
12840;SDS011;6487;48.626;12.486;2023-09-18T08:19:50;5.40;;;5.00;;
12840;SDS011;6487;48.626;12.486;2023-09-18T08:22:19;5.37;;;4.50;;
12840;SDS011;6487;48.626;12.486;2023-09-18T08:24:48;5.13;;;4.70;;
12840;SDS011;6487;48.626;12.486;2023-09-18T08:27:20;4.50;;;4.10;;
12840;SDS011;6487;48.626;12.486;2023-09-18T08:29:51;4.93;;;4.53;;
12840;SDS011;6487;48.626;12.486;2023-09-18T08:32:19;5.95;;;5.35;;
12840;SDS011;6487;48.626;12.486;2023-09-18T08:34:48;4.95;;;4.55;;
12840;SDS011;6487;48.626;12.486;2023-09-18T08:37:16;5.15;;;4.15;;
12840;SDS011;6487;48.626;12.486;2023-09-18T08:39:44;5.10;;;4.70;;
12840;SDS011;6487;48.626;12.486;2023-09-18T08:42:13;5.68;;;4.45;;
12840;SDS011;6487;48.626;12.486;2023-09-18T08:44:44;5.57;;;5.05;;
12840;SDS011;6487;48.626;12.486;2023-09-18T08:47:16;4.47;;;4.18;;
12840;SDS011;6487;48.626;12.486;2023-09-18T08:49:46;4.97;;;4.57;;
12840;SDS011;6487;48.626;12.486;2023-09-18T08:52:17;5.03;;;4.63;;
12840;SDS011;6487;48.626;12.486;2023-09-18T08:54:45;5.50;;;5.10;;
12840;SDS011;6487;48.626;12.486;2023-09-18T08:57:14;6.05;;;5.32;;
12840;SDS011;6487;48.626;12.486;2023-09-18T08:59:44;5.22;;;4.72;;
12840;SDS011;6487;48.626;12.486;2023-09-18T09:02:13;5.22;;;4.82;;
12840;SDS011;6487;48.626;12.486;2023-09-18T09:04:42;5.50;;;5.00;;
12840;SDS011;6487;48.626;12.486;2023-09-18T09:07:11;5.50;;;4.97;;
12840;SDS011;6487;48.626;12.486;2023-09-18T09:09:39;5.65;;;5.07;;
12840;SDS011;6487;48.626;12.486;2023-09-18T09:12:09;5.97;;;5.07;;
12840;SDS011;6487;48.626;12.486;2023-09-18T09:14:37;5.50;;;5.05;;
12840;SDS011;6487;48.626;12.486;2023-09-18T09:17:07;5.72;;;4.90;;
12840;SDS011;6487;48.626;12.486;2023-09-18T09:19:36;8.45;;;6.00;;
12840;SDS011;6487;48.626;12.486;2023-09-18T09:22:08;6.60;;;5.28;;
12840;SDS011;6487;48.626;12.486;2023-09-18T09:24:38;6.82;;;4.88;;
12840;SDS011;6487;48.626;12.486;2023-09-18T09:27:07;4.93;;;4.53;;
12840;SDS011;6487;48.626;12.486;2023-09-18T09:29:36;6.03;;;5.40;;
12840;SDS011;6487;48.626;12.486;2023-09-18T09:32:16;5.22;;;4.72;;
12840;SDS011;6487;48.626;12.486;2023-09-18T09:34:46;4.63;;;4.15;;
12840;SDS011;6487;48.626;12.486;2023-09-18T09:37:14;5.63;;;4.32;;
12840;SDS011;6487;48.626;12.486;2023-09-18T09:39:46;4.70;;;4.40;;
12840;SDS011;6487;48.626;12.486;2023-09-18T09:42:17;4.72;;;4.15;;
12840;SDS011;6487;48.626;12.486;2023-09-18T09:45:01;4.72;;;4.10;;
12840;SDS011;6487;48.626;12.486;2023-09-18T09:47:34;4.47;;;4.05;;
12840;SDS011;6487;48.626;12.486;2023-09-18T09:50:06;4.20;;;3.88;;
12840;SDS011;6487;48.626;12.486;2023-09-18T09:52:40;4.75;;;4.30;;
12840;SDS011;6487;48.626;12.486;2023-09-18T09:55:24;5.45;;;4.00;;
12840;SDS011;6487;48.626;12.486;2023-09-18T09:57:55;6.32;;;4.00;;
12840;SDS011;6487;48.626;12.486;2023-09-18T10:00:28;4.20;;;3.78;;
12840;SDS011;6487;48.626;12.486;2023-09-18T10:03:07;4.60;;;4.20;;
12840;SDS011;6487;48.626;12.486;2023-09-18T10:05:42;4.30;;;3.90;;
12840;SDS011;6487;48.626;12.486;2023-09-18T10:08:14;3.92;;;3.50;;
12840;SDS011;6487;48.626;12.486;2023-09-18T10:10:48;4.00;;;3.60;;
12840;SDS011;6487;48.626;12.486;2023-09-18T10:13:19;5.40;;;4.30;;
12840;SDS011;6487;48.626;12.486;2023-09-18T10:15:58;4.30;;;3.90;;
12840;SDS011;6487;48.626;12.486;2023-09-18T10:18:50;4.82;;;4.43;;
12840;SDS011;6487;48.626;12.486;2023-09-18T10:21:26;4.30;;;3.90;;
12840;SDS011;6487;48.626;12.486;2023-09-18T10:24:09;4.25;;;3.95;;
12840;SDS011;6487;48.626;12.486;2023-09-18T10:26:47;4.35;;;3.95;;
12840;SDS011;6487;48.626;12.486;2023-09-18T10:29:22;4.32;;;3.90;;
12840;SDS011;6487;48.626;12.486;2023-09-18T10:31:51;6.10;;;4.43;;
12840;SDS011;6487;48.626;12.486;2023-09-18T10:34:22;4.07;;;3.78;;
12840;SDS011;6487;48.626;12.486;2023-09-18T10:36:52;4.10;;;3.80;;
12840;SDS011;6487;48.626;12.486;2023-09-18T10:39:23;4.32;;;3.85;;
12840;SDS011;6487;48.626;12.486;2023-09-18T10:41:56;6.47;;;3.97;;
12840;SDS011;6487;48.626;12.486;2023-09-18T10:44:32;4.50;;;3.85;;
12840;SDS011;6487;48.626;12.486;2023-09-18T10:47:01;3.83;;;3.53;;
12840;SDS011;6487;48.626;12.486;2023-09-18T10:49:33;3.97;;;3.67;;
12840;SDS011;6487;48.626;12.486;2023-09-18T10:52:02;5.53;;;4.18;;
12840;SDS011;6487;48.626;12.486;2023-09-18T10:54:31;3.92;;;3.20;;
12840;SDS011;6487;48.626;12.486;2023-09-18T10:57:04;3.70;;;3.50;;
12840;SDS011;6487;48.626;12.486;2023-09-18T10:59:33;3.83;;;3.50;;
12840;SDS011;6487;48.626;12.486;2023-09-18T11:02:04;6.97;;;4.32;;
12840;SDS011;6487;48.626;12.486;2023-09-18T11:04:34;5.00;;;4.20;;
12840;SDS011;6487;48.626;12.486;2023-09-18T11:07:03;6.97;;;4.00;;
12840;SDS011;6487;48.626;12.486;2023-09-18T11:09:40;4.88;;;3.70;;
12840;SDS011;6487;48.626;12.486;2023-09-18T11:12:11;4.10;;;3.70;;
12840;SDS011;6487;48.626;12.486;2023-09-18T11:14:43;10.43;;;3.83;;
12840;SDS011;6487;48.626;12.486;2023-09-18T11:17:31;4.95;;;3.33;;
12840;SDS011;6487;48.626;12.486;2023-09-18T11:20:08;4.53;;;4.10;;
12840;SDS011;6487;48.626;12.486;2023-09-18T11:22:47;5.00;;;3.85;;
12840;SDS011;6487;48.626;12.486;2023-09-18T11:25:35;4.65;;;3.72;;
12840;SDS011;6487;48.626;12.486;2023-09-18T11:28:05;6.28;;;3.75;;
12840;SDS011;6487;48.626;12.486;2023-09-18T11:30:34;6.18;;;4.00;;
12840;SDS011;6487;48.626;12.486;2023-09-18T11:33:05;5.68;;;3.90;;
12840;SDS011;6487;48.626;12.486;2023-09-18T11:35:38;7.90;;;3.88;;
12840;SDS011;6487;48.626;12.486;2023-09-18T11:38:19;9.75;;;4.50;;
12840;SDS011;6487;48.626;12.486;2023-09-18T11:40:49;5.75;;;3.72;;
12840;SDS011;6487;48.626;12.486;2023-09-18T11:43:21;10.50;;;4.00;;
12840;SDS011;6487;48.626;12.486;2023-09-18T11:45:53;5.75;;;3.78;;
12840;SDS011;6487;48.626;12.486;2023-09-18T11:48:22;4.45;;;3.75;;
12840;SDS011;6487;48.626;12.486;2023-09-18T11:50:57;8.13;;;3.72;;
12840;SDS011;6487;48.626;12.486;2023-09-18T11:53:26;9.27;;;4.35;;
12840;SDS011;6487;48.626;12.486;2023-09-18T11:55:55;6.80;;;4.32;;
12840;SDS011;6487;48.626;12.486;2023-09-18T11:58:24;8.23;;;3.90;;
12840;SDS011;6487;48.626;12.486;2023-09-18T12:00:53;9.00;;;3.90;;
12840;SDS011;6487;48.626;12.486;2023-09-18T12:03:22;8.85;;;3.88;;
12840;SDS011;6487;48.626;12.486;2023-09-18T12:05:55;5.90;;;2.97;;
12840;SDS011;6487;48.626;12.486;2023-09-18T12:08:28;7.57;;;3.05;;
12840;SDS011;6487;48.626;12.486;2023-09-18T12:10:58;9.00;;;3.72;;
12840;SDS011;6487;48.626;12.486;2023-09-18T12:13:27;9.45;;;3.70;;
12840;SDS011;6487;48.626;12.486;2023-09-18T12:15:56;8.45;;;3.15;;
12840;SDS011;6487;48.626;12.486;2023-09-18T12:18:25;6.35;;;3.33;;
12840;SDS011;6487;48.626;12.486;2023-09-18T12:20:58;4.95;;;3.28;;
12840;SDS011;6487;48.626;12.486;2023-09-18T12:23:26;5.10;;;2.95;;
12840;SDS011;6487;48.626;12.486;2023-09-18T12:25:57;5.13;;;3.40;;
12840;SDS011;6487;48.626;12.486;2023-09-18T12:28:28;3.70;;;2.90;;
12840;SDS011;6487;48.626;12.486;2023-09-18T12:30:57;4.45;;;2.67;;
12840;SDS011;6487;48.626;12.486;2023-09-18T12:33:25;8.25;;;3.42;;
12840;SDS011;6487;48.626;12.486;2023-09-18T12:35:54;7.60;;;3.67;;
12840;SDS011;6487;48.626;12.486;2023-09-18T12:38:24;7.20;;;3.50;;
12840;SDS011;6487;48.626;12.486;2023-09-18T12:40:54;5.78;;;3.55;;
12840;SDS011;6487;48.626;12.486;2023-09-18T12:43:22;7.82;;;3.80;;
12840;SDS011;6487;48.626;12.486;2023-09-18T12:45:56;8.95;;;4.00;;
12840;SDS011;6487;48.626;12.486;2023-09-18T12:48:25;5.22;;;3.60;;
12840;SDS011;6487;48.626;12.486;2023-09-18T12:50:54;5.93;;;3.97;;
12840;SDS011;6487;48.626;12.486;2023-09-18T12:53:24;4.25;;;3.63;;
12840;SDS011;6487;48.626;12.486;2023-09-18T12:55:52;7.88;;;3.85;;
12840;SDS011;6487;48.626;12.486;2023-09-18T12:58:21;7.35;;;4.07;;
12840;SDS011;6487;48.626;12.486;2023-09-18T13:00:50;7.22;;;3.90;;
12840;SDS011;6487;48.626;12.486;2023-09-18T13:03:19;7.13;;;3.92;;
12840;SDS011;6487;48.626;12.486;2023-09-18T13:05:47;5.90;;;3.78;;
12840;SDS011;6487;48.626;12.486;2023-09-18T13:08:21;8.93;;;3.50;;
12840;SDS011;6487;48.626;12.486;2023-09-18T13:10:51;5.07;;;3.30;;
12840;SDS011;6487;48.626;12.486;2023-09-18T13:13:20;10.25;;;4.05;;
12840;SDS011;6487;48.626;12.486;2023-09-18T13:15:51;6.82;;;3.70;;
12840;SDS011;6487;48.626;12.486;2023-09-18T13:18:21;6.97;;;3.45;;
12840;SDS011;6487;48.626;12.486;2023-09-18T13:20:51;5.22;;;2.45;;
12840;SDS011;6487;48.626;12.486;2023-09-18T13:23:23;4.20;;;2.30;;
12840;SDS011;6487;48.626;12.486;2023-09-18T13:26:00;5.68;;;2.63;;
12840;SDS011;6487;48.626;12.486;2023-09-18T13:28:30;5.55;;;2.35;;
12840;SDS011;6487;48.626;12.486;2023-09-18T13:31:01;6.53;;;2.53;;
12840;SDS011;6487;48.626;12.486;2023-09-18T13:33:33;4.07;;;1.97;;
12840;SDS011;6487;48.626;12.486;2023-09-18T13:36:07;10.17;;;2.60;;
12840;SDS011;6487;48.626;12.486;2023-09-18T13:38:36;5.27;;;2.13;;
12840;SDS011;6487;48.626;12.486;2023-09-18T13:41:05;8.63;;;2.30;;
12840;SDS011;6487;48.626;12.486;2023-09-18T13:43:33;6.00;;;2.33;;
12840;SDS011;6487;48.626;12.486;2023-09-18T13:46:02;6.27;;;2.27;;
12840;SDS011;6487;48.626;12.486;2023-09-18T13:48:31;6.67;;;2.20;;
12840;SDS011;6487;48.626;12.486;2023-09-18T13:51:05;5.67;;;2.57;;
12840;SDS011;6487;48.626;12.486;2023-09-18T13:53:34;8.47;;;2.43;;
12840;SDS011;6487;48.626;12.486;2023-09-18T13:56:04;5.83;;;2.00;;
12840;SDS011;6487;48.626;12.486;2023-09-18T13:58:32;8.20;;;2.37;;
12840;SDS011;6487;48.626;12.486;2023-09-18T14:01:02;6.53;;;2.07;;
12840;SDS011;6487;48.626;12.486;2023-09-18T14:03:31;5.97;;;1.93;;
12840;SDS011;6487;48.626;12.486;2023-09-18T14:06:00;4.47;;;1.80;;
12840;SDS011;6487;48.626;12.486;2023-09-18T14:08:31;5.43;;;1.70;;
12840;SDS011;6487;48.626;12.486;2023-09-18T14:11:00;6.40;;;1.70;;
12840;SDS011;6487;48.626;12.486;2023-09-18T14:13:32;3.73;;;1.50;;
12840;SDS011;6487;48.626;12.486;2023-09-18T14:16:01;5.37;;;1.53;;
12840;SDS011;6487;48.626;12.486;2023-09-18T14:18:30;5.17;;;1.60;;
12840;SDS011;6487;48.626;12.486;2023-09-18T14:20:58;4.23;;;1.40;;
12840;SDS011;6487;48.626;12.486;2023-09-18T14:23:28;2.67;;;1.37;;
12840;SDS011;6487;48.626;12.486;2023-09-18T14:25:56;6.87;;;1.40;;
12840;SDS011;6487;48.626;12.486;2023-09-18T14:28:25;2.90;;;1.23;;
12840;SDS011;6487;48.626;12.486;2023-09-18T14:30:55;5.53;;;1.20;;
12840;SDS011;6487;48.626;12.486;2023-09-18T14:33:23;8.87;;;1.80;;
12840;SDS011;6487;48.626;12.486;2023-09-18T14:35:52;4.90;;;1.40;;
12840;SDS011;6487;48.626;12.486;2023-09-18T14:38:21;4.50;;;1.00;;
12840;SDS011;6487;48.626;12.486;2023-09-18T14:40:50;2.03;;;1.30;;
12840;SDS011;6487;48.626;12.486;2023-09-18T14:43:18;1.77;;;1.30;;
12840;SDS011;6487;48.626;12.486;2023-09-18T14:45:47;3.23;;;1.20;;
12840;SDS011;6487;48.626;12.486;2023-09-18T14:48:16;4.37;;;1.37;;
12840;SDS011;6487;48.626;12.486;2023-09-18T14:50:52;3.60;;;1.30;;
12840;SDS011;6487;48.626;12.486;2023-09-18T14:53:21;1.67;;;1.03;;
12840;SDS011;6487;48.626;12.486;2023-09-18T14:55:50;1.57;;;1.00;;
12840;SDS011;6487;48.626;12.486;2023-09-18T14:58:21;5.20;;;0.93;;
12840;SDS011;6487;48.626;12.486;2023-09-18T15:00:50;2.57;;;1.30;;
12840;SDS011;6487;48.626;12.486;2023-09-18T15:03:19;1.97;;;1.17;;
12840;SDS011;6487;48.626;12.486;2023-09-18T15:05:51;1.73;;;1.10;;
12840;SDS011;6487;48.626;12.486;2023-09-18T15:08:21;3.23;;;1.40;;